Pigeon, Michigan
Current Conditions -  °F | °C
As of 9:36 AM on Friday 28 Nov 2014 (Local Time) from KBAX Reporting Station
Scattered Clouds Scattered Clouds  
Wind Chill: 11°   Ceiling: Unl
Heat Index: 20°   Visibility: 10mi
Dew Point: 10°   Wind: 7mph
Humidity: 65%   Direction: 270°W
Pressure: 30.29"   Gusts: NA
Location:  43.83°N, 83.27°W
Report Text: KBAX 281436Z AUTO 27006KT 10SM SCT120 M06/M12 A3029 RMK AO2 T10651121
Loading
Personal Weather Stations






























Interactive Weather Map New forecast layout! Learn more

10-Day Weather Forecast

Advertisements
Track Severe Weather on mobile